NOZ870 ESGG-ENBR
Flight info
| Callsign | NOZ870 |
|---|---|
| Flight time | 0h 53m |
| Altitude | 38000 |
| Route | DETNA DCT ARTOR DCT TITUX DCT PESUR |
| Aircraft | B738/M-SDE2E3FGHIRWXY/LB1 |
Departure
| Time | 2026-05-07 19:45 |
|---|---|
| Airport | Göteborg Landvetter Airport (ESGG) |
Arrival
| Time | 2026-05-07 20:39 |
|---|---|
| Airport | Bergen Airport, Flesland (ENBR) |
| Time | Latitude | Longitude | Altitude | Speed | Heading |
|---|---|---|---|---|---|
| 2026-05-07 19:15 | 57.67055 | 12.29544 | 510 ft | 0 kts | 116° |
| 2026-05-07 19:31 | 57.67059 | 12.29530 | 510 ft | 4 kts | 114° |
| 2026-05-07 19:31 | 57.67067 | 12.29483 | 510 ft | 4 kts | 93° |
| 2026-05-07 19:32 | 57.67063 | 12.29437 | 510 ft | 4 kts | 52° |
| 2026-05-07 19:32 | 57.67051 | 12.29417 | 510 ft | 1 kts | 26° |
| 2026-05-07 19:32 | 57.67049 | 12.29415 | 510 ft | 0 kts | 26° |
| 2026-05-07 19:36 | 57.67056 | 12.29421 | 510 ft | 2 kts | 26° |
| 2026-05-07 19:36 | 57.67081 | 12.29444 | 510 ft | 6 kts | 26° |
| 2026-05-07 19:36 | 57.67140 | 12.29498 | 511 ft | 13 kts | 26° |
| 2026-05-07 19:37 | 57.67215 | 12.29456 | 512 ft | 13 kts | 293° |
| 2026-05-07 19:37 | 57.67185 | 12.29315 | 511 ft | 14 kts | 208° |
| 2026-05-07 19:37 | 57.67072 | 12.29213 | 510 ft | 22 kts | 205° |
| 2026-05-07 19:37 | 57.66918 | 12.29072 | 508 ft | 27 kts | 206° |
| 2026-05-07 19:38 | 57.66736 | 12.28904 | 506 ft | 30 kts | 206° |
| 2026-05-07 19:38 | 57.66658 | 12.28681 | 505 ft | 19 kts | 233° |
| 2026-05-07 19:38 | 57.66547 | 12.28570 | 504 ft | 18 kts | 205° |
| 2026-05-07 19:38 | 57.66436 | 12.28471 | 503 ft | 17 kts | 205° |
| 2026-05-07 19:39 | 57.66330 | 12.28374 | 502 ft | 17 kts | 206° |
| 2026-05-07 19:39 | 57.66210 | 12.28262 | 500 ft | 21 kts | 206° |
| 2026-05-07 19:39 | 57.66064 | 12.28126 | 499 ft | 26 kts | 206° |
| 2026-05-07 19:39 | 57.65953 | 12.28030 | 498 ft | 27 kts | 205° |
| 2026-05-07 19:40 | 57.65736 | 12.27825 | 492 ft | 25 kts | 207° |
| 2026-05-07 19:40 | 57.65585 | 12.27689 | 494 ft | 23 kts | 206° |
| 2026-05-07 19:40 | 57.65445 | 12.27562 | 492 ft | 22 kts | 206° |
| 2026-05-07 19:40 | 57.65304 | 12.27433 | 491 ft | 22 kts | 206° |
| 2026-05-07 19:41 | 57.65170 | 12.27308 | 485 ft | 21 kts | 207° |
| 2026-05-07 19:41 | 57.65041 | 12.27186 | 485 ft | 21 kts | 208° |
| 2026-05-07 19:41 | 57.65032 | 12.27042 | 484 ft | 0 kts | 327° |
| 2026-05-07 19:43 | 57.65052 | 12.27027 | 486 ft | 11 kts | 340° |
| 2026-05-07 19:43 | 57.65150 | 12.26973 | 488 ft | 15 kts | 355° |
| 2026-05-07 19:44 | 57.65217 | 12.27005 | 489 ft | 0 kts | 26° |
| 2026-05-07 19:44 | 57.65259 | 12.27043 | 488 ft | 33 kts | 26° |
| 2026-05-07 19:45 | 57.65712 | 12.27455 | 487 ft | 111 kts | 26° |
| 2026-05-07 19:45 | 57.66615 | 12.28274 | 627 ft | 164 kts | 24° |
| 2026-05-07 19:45 | 57.67711 | 12.29242 | 1164 ft | 190 kts | 24° |
| 2026-05-07 19:45 | 57.69001 | 12.30383 | 1546 ft | 219 kts | 24° |
| 2026-05-07 19:46 | 57.70555 | 12.31062 | 1779 ft | 244 kts | 353° |
| 2026-05-07 19:46 | 57.72122 | 12.29792 | 2501 ft | 253 kts | 317° |
| 2026-05-07 19:46 | 57.73162 | 12.27125 | 3380 ft | 258 kts | 299° |
| 2026-05-07 19:46 | 57.74016 | 12.24125 | 4206 ft | 265 kts | 298° |
| 2026-05-07 19:47 | 57.74911 | 12.21086 | 5104 ft | 268 kts | 298° |
| 2026-05-07 19:47 | 57.75826 | 12.18018 | 6000 ft | 271 kts | 298° |
| 2026-05-07 19:47 | 57.76747 | 12.14929 | 6919 ft | 272 kts | 298° |
| 2026-05-07 19:47 | 57.77672 | 12.11816 | 7820 ft | 274 kts | 298° |
| 2026-05-07 19:48 | 57.78599 | 12.08686 | 8709 ft | 276 kts | 298° |
| 2026-05-07 19:48 | 57.79531 | 12.05532 | 9581 ft | 278 kts | 298° |
| 2026-05-07 19:48 | 57.80470 | 12.02348 | 10411 ft | 281 kts | 298° |
| 2026-05-07 19:48 | 57.81447 | 11.99027 | 10722 ft | 303 kts | 298° |
| 2026-05-07 19:49 | 57.82506 | 11.95419 | 10919 ft | 327 kts | 298° |
| 2026-05-07 19:49 | 57.83624 | 11.91603 | 11406 ft | 339 kts | 298° |
| 2026-05-07 19:49 | 57.84767 | 11.87694 | 12128 ft | 343 kts | 298° |
| 2026-05-07 19:49 | 57.85919 | 11.83752 | 12975 ft | 345 kts | 298° |
| 2026-05-07 19:50 | 57.87076 | 11.79784 | 13812 ft | 348 kts | 298° |
| 2026-05-07 19:50 | 57.88246 | 11.75760 | 14547 ft | 352 kts | 298° |
| 2026-05-07 19:50 | 57.89424 | 11.71704 | 15304 ft | 356 kts | 298° |
| 2026-05-07 19:50 | 57.90613 | 11.67603 | 16072 ft | 359 kts | 297° |
| 2026-05-07 19:51 | 57.91813 | 11.63456 | 16834 ft | 362 kts | 297° |
| 2026-05-07 19:51 | 57.93022 | 11.59272 | 17584 ft | 366 kts | 297° |
| 2026-05-07 19:51 | 57.94243 | 11.55037 | 18326 ft | 370 kts | 297° |
| 2026-05-07 19:51 | 57.95474 | 11.50756 | 18962 ft | 374 kts | 297° |
| 2026-05-07 19:52 | 57.96713 | 11.46445 | 19605 ft | 376 kts | 297° |
| 2026-05-07 19:52 | 57.97964 | 11.42081 | 20260 ft | 379 kts | 297° |
| 2026-05-07 19:52 | 57.99221 | 11.37687 | 20903 ft | 382 kts | 297° |
| 2026-05-07 19:52 | 58.00484 | 11.33267 | 21515 ft | 385 kts | 297° |
| 2026-05-07 19:53 | 58.01740 | 11.28861 | 22113 ft | 388 kts | 297° |
| 2026-05-07 19:53 | 58.03020 | 11.24361 | 22708 ft | 391 kts | 297° |
| 2026-05-07 19:53 | 58.04310 | 11.19817 | 23306 ft | 394 kts | 297° |
| 2026-05-07 19:53 | 58.05607 | 11.15241 | 23856 ft | 397 kts | 297° |
| 2026-05-07 19:54 | 58.06911 | 11.10630 | 24322 ft | 400 kts | 297° |
| 2026-05-07 19:54 | 58.08225 | 11.05975 | 24809 ft | 402 kts | 297° |
| 2026-05-07 19:54 | 58.09541 | 11.01303 | 25269 ft | 405 kts | 297° |
| 2026-05-07 19:54 | 58.10868 | 10.96584 | 25734 ft | 407 kts | 297° |
| 2026-05-07 19:55 | 58.12198 | 10.91842 | 26175 ft | 410 kts | 297° |
| 2026-05-07 19:55 | 58.13536 | 10.87065 | 26597 ft | 412 kts | 297° |
| 2026-05-07 19:55 | 58.14880 | 10.82252 | 27027 ft | 415 kts | 297° |
| 2026-05-07 19:55 | 58.16231 | 10.77407 | 27448 ft | 417 kts | 297° |
| 2026-05-07 19:56 | 58.17582 | 10.72549 | 27951 ft | 417 kts | 297° |
| 2026-05-07 19:56 | 58.18930 | 10.67696 | 28561 ft | 414 kts | 296° |
| 2026-05-07 19:56 | 58.20263 | 10.62884 | 29211 ft | 411 kts | 296° |
| 2026-05-07 19:56 | 58.21589 | 10.58086 | 29775 ft | 410 kts | 296° |
| 2026-05-07 19:57 | 58.22911 | 10.53295 | 30286 ft | 410 kts | 296° |
| 2026-05-07 19:57 | 58.24227 | 10.48511 | 30762 ft | 408 kts | 296° |
| 2026-05-07 19:57 | 58.25539 | 10.43736 | 31247 ft | 406 kts | 296° |
| 2026-05-07 19:57 | 58.26838 | 10.38998 | 31712 ft | 405 kts | 296° |
| 2026-05-07 19:58 | 58.28136 | 10.34251 | 32120 ft | 405 kts | 296° |
| 2026-05-07 19:58 | 58.29440 | 10.29477 | 32136 ft | 408 kts | 296° |
| 2026-05-07 19:58 | 58.32048 | 10.19934 | 32140 ft | 403 kts | 298° |
| 2026-05-07 19:59 | 58.35479 | 10.11494 | 32170 ft | 408 kts | 315° |
| 2026-05-07 19:59 | 58.37646 | 10.07954 | 32462 ft | 411 kts | 317° |
| 2026-05-07 19:59 | 58.39843 | 10.04510 | 33039 ft | 406 kts | 318° |
| 2026-05-07 20:00 | 58.42014 | 10.01126 | 33632 ft | 401 kts | 318° |
| 2026-05-07 20:00 | 58.44173 | 9.97747 | 34015 ft | 402 kts | 318° |
| 2026-05-07 20:00 | 58.46324 | 9.94355 | 34391 ft | 401 kts | 317° |
| 2026-05-07 20:00 | 58.48467 | 9.90957 | 34701 ft | 401 kts | 317° |
| 2026-05-07 20:01 | 58.50609 | 9.87543 | 34959 ft | 402 kts | 317° |
| 2026-05-07 20:01 | 58.52766 | 9.84092 | 35238 ft | 403 kts | 317° |
| 2026-05-07 20:01 | 58.54914 | 9.80649 | 35539 ft | 403 kts | 317° |
| 2026-05-07 20:01 | 58.57065 | 9.77194 | 35830 ft | 403 kts | 317° |
| 2026-05-07 20:02 | 58.59213 | 9.73736 | 36100 ft | 404 kts | 317° |
| 2026-05-07 20:02 | 58.61370 | 9.70260 | 36364 ft | 405 kts | 317° |
| 2026-05-07 20:02 | 58.63525 | 9.66780 | 36638 ft | 405 kts | 316° |
| 2026-05-07 20:02 | 58.65682 | 9.63293 | 36904 ft | 406 kts | 316° |
| 2026-05-07 20:03 | 58.67839 | 9.59798 | 37158 ft | 406 kts | 316° |
| 2026-05-07 20:03 | 58.70001 | 9.56290 | 37400 ft | 407 kts | 316° |
| 2026-05-07 20:03 | 58.72168 | 9.52769 | 37657 ft | 408 kts | 316° |
| 2026-05-07 20:03 | 58.74327 | 9.49254 | 37903 ft | 408 kts | 316° |
| 2026-05-07 20:04 | 58.76497 | 9.45715 | 38132 ft | 408 kts | 316° |
| 2026-05-07 20:04 | 58.78675 | 9.42155 | 38138 ft | 412 kts | 316° |
| 2026-05-07 20:04 | 58.83049 | 9.34992 | 38149 ft | 413 kts | 316° |
| 2026-05-07 20:05 | 58.87362 | 9.27910 | 38147 ft | 406 kts | 316° |
| 2026-05-07 20:05 | 58.91651 | 9.20838 | 38156 ft | 405 kts | 316° |
| 2026-05-07 20:06 | 58.95955 | 9.13712 | 38169 ft | 411 kts | 316° |
| 2026-05-07 20:06 | 59.00354 | 9.06407 | 38165 ft | 421 kts | 316° |
| 2026-05-07 20:07 | 59.04828 | 8.98900 | 38158 ft | 429 kts | 314° |
| 2026-05-07 20:07 | 59.09167 | 8.90778 | 38158 ft | 436 kts | 311° |
| 2026-05-07 20:08 | 59.13475 | 8.82377 | 38148 ft | 440 kts | 311° |
| 2026-05-07 20:08 | 59.17810 | 8.73944 | 38144 ft | 441 kts | 311° |
| 2026-05-07 20:09 | 59.22158 | 8.65520 | 38142 ft | 440 kts | 312° |
| 2026-05-07 20:10 | 59.28664 | 8.52897 | 38146 ft | 439 kts | 311° |
| 2026-05-07 20:10 | 59.32986 | 8.44471 | 38143 ft | 437 kts | 311° |
| 2026-05-07 20:11 | 59.37285 | 8.36058 | 38132 ft | 436 kts | 311° |
| 2026-05-07 20:11 | 59.41536 | 8.27706 | 38143 ft | 435 kts | 311° |
| 2026-05-07 20:12 | 59.45793 | 8.19309 | 38134 ft | 434 kts | 311° |
| 2026-05-07 20:12 | 59.50044 | 8.10894 | 38140 ft | 433 kts | 311° |
| 2026-05-07 20:13 | 59.54273 | 8.02488 | 38131 ft | 432 kts | 311° |
| 2026-05-07 20:13 | 59.58492 | 7.94072 | 38141 ft | 431 kts | 311° |
| 2026-05-07 20:14 | 59.62706 | 7.85634 | 38139 ft | 431 kts | 311° |
| 2026-05-07 20:14 | 59.66907 | 7.77190 | 38130 ft | 430 kts | 310° |
| 2026-05-07 20:15 | 59.71096 | 7.68740 | 38139 ft | 430 kts | 310° |
| 2026-05-07 20:15 | 59.75276 | 7.60272 | 38157 ft | 430 kts | 310° |
| 2026-05-07 20:16 | 59.79458 | 7.51771 | 38147 ft | 430 kts | 310° |
| 2026-05-07 20:16 | 59.83630 | 7.43255 | 38153 ft | 431 kts | 310° |
| 2026-05-07 20:17 | 59.87728 | 7.34874 | 37804 ft | 412 kts | 310° |
| 2026-05-07 20:17 | 59.89721 | 7.30782 | 37193 ft | 412 kts | 309° |
| 2026-05-07 20:17 | 59.91715 | 7.26675 | 36643 ft | 411 kts | 309° |
| 2026-05-07 20:17 | 59.93689 | 7.22603 | 36224 ft | 406 kts | 309° |
| 2026-05-07 20:18 | 59.95620 | 7.18619 | 35760 ft | 395 kts | 309° |
| 2026-05-07 20:18 | 59.97519 | 7.14695 | 35164 ft | 390 kts | 308° |
| 2026-05-07 20:18 | 59.99389 | 7.10818 | 34555 ft | 385 kts | 308° |
| 2026-05-07 20:18 | 60.01228 | 7.07000 | 33974 ft | 378 kts | 308° |
| 2026-05-07 20:19 | 60.03033 | 7.03246 | 33349 ft | 372 kts | 308° |
| 2026-05-07 20:19 | 60.04814 | 6.99521 | 31932 ft | 370 kts | 308° |
| 2026-05-07 20:19 | 60.06441 | 6.95174 | 27477 ft | 424 kts | 295° |
| 2026-05-07 20:19 | 60.07786 | 6.89485 | 23507 ft | 452 kts | 292° |
| 2026-05-07 20:20 | 60.08947 | 6.83478 | 18269 ft | 456 kts | 284° |
| 2026-05-07 20:20 | 60.09887 | 6.77483 | 13563 ft | 448 kts | 287° |
| 2026-05-07 20:20 | 60.10669 | 6.71635 | 10187 ft | 423 kts | 278° |
| 2026-05-07 20:20 | 60.11048 | 6.65921 | 6971 ft | 410 kts | 276° |
| 2026-05-07 20:21 | 60.11467 | 6.60254 | 3477 ft | 419 kts | 277° |
| 2026-05-07 20:21 | 60.12820 | 6.55512 | 1366 ft | 408 kts | 342° |
| 2026-05-07 20:21 | 60.15541 | 6.56064 | 880 ft | 392 kts | 9° |
| 2026-05-07 20:21 | 60.18216 | 6.56847 | 1244 ft | 383 kts | 9° |
| 2026-05-07 20:22 | 60.20895 | 6.57640 | 870 ft | 392 kts | 9° |
| 2026-05-07 20:22 | 60.23566 | 6.58553 | 825 ft | 390 kts | 13° |
| 2026-05-07 20:22 | 60.26177 | 6.59801 | 508 ft | 390 kts | 16° |
| 2026-05-07 20:22 | 60.28720 | 6.61653 | 368 ft | 387 kts | 21° |
| 2026-05-07 20:23 | 60.31188 | 6.63925 | 424 ft | 385 kts | 28° |
| 2026-05-07 20:23 | 60.33744 | 6.65013 | 490 ft | 384 kts | 345° |
| 2026-05-07 20:23 | 60.35837 | 6.62994 | 3255 ft | 336 kts | 313° |
| 2026-05-07 20:23 | 60.37328 | 6.59251 | 4940 ft | 341 kts | 306° |
| 2026-05-07 20:24 | 60.38606 | 6.55476 | 6167 ft | 300 kts | 298° |
| 2026-05-07 20:24 | 60.39332 | 6.51610 | 6722 ft | 294 kts | 281° |
| 2026-05-07 20:24 | 60.39749 | 6.47664 | 7863 ft | 284 kts | 278° |
| 2026-05-07 20:24 | 60.40103 | 6.43833 | 9384 ft | 271 kts | 277° |
| 2026-05-07 20:25 | 60.40443 | 6.40064 | 9959 ft | 271 kts | 277° |
| 2026-05-07 20:25 | 60.40785 | 6.36298 | 10093 ft | 276 kts | 277° |
| 2026-05-07 20:25 | 60.41136 | 6.32472 | 10098 ft | 274 kts | 277° |
| 2026-05-07 20:25 | 60.41489 | 6.28684 | 10104 ft | 273 kts | 277° |
| 2026-05-07 20:26 | 60.41843 | 6.24908 | 10104 ft | 274 kts | 277° |
| 2026-05-07 20:26 | 60.42198 | 6.21133 | 10092 ft | 273 kts | 277° |
| 2026-05-07 20:26 | 60.42553 | 6.17361 | 10104 ft | 272 kts | 277° |
| 2026-05-07 20:26 | 60.42906 | 6.13598 | 10086 ft | 272 kts | 277° |
| 2026-05-07 20:27 | 60.43258 | 6.09859 | 9900 ft | 267 kts | 277° |
| 2026-05-07 20:27 | 60.43595 | 6.06298 | 9827 ft | 248 kts | 276° |
| 2026-05-07 20:27 | 60.43910 | 6.02950 | 9612 ft | 239 kts | 276° |
| 2026-05-07 20:27 | 60.44215 | 5.99654 | 9176 ft | 238 kts | 276° |
| 2026-05-07 20:28 | 60.44520 | 5.96361 | 8748 ft | 238 kts | 276° |
| 2026-05-07 20:28 | 60.44824 | 5.93063 | 8297 ft | 238 kts | 276° |
| 2026-05-07 20:28 | 60.45127 | 5.89784 | 7881 ft | 237 kts | 276° |
| 2026-05-07 20:28 | 60.45431 | 5.86481 | 7433 ft | 239 kts | 276° |
| 2026-05-07 20:29 | 60.45730 | 5.83223 | 7146 ft | 239 kts | 276° |
| 2026-05-07 20:29 | 60.46135 | 5.79929 | 7101 ft | 245 kts | 290° |
| 2026-05-07 20:29 | 60.46736 | 5.76748 | 7088 ft | 239 kts | 273° |
| 2026-05-07 20:29 | 60.46862 | 5.73423 | 7108 ft | 238 kts | 271° |
| 2026-05-07 20:30 | 60.46980 | 5.71207 | 7103 ft | 240 kts | 273° |
| 2026-05-07 20:30 | 60.47217 | 5.67856 | 7098 ft | 240 kts | 274° |
| 2026-05-07 20:30 | 60.47549 | 5.64548 | 7093 ft | 244 kts | 289° |
| 2026-05-07 20:30 | 60.48496 | 5.61650 | 7107 ft | 247 kts | 297° |
| 2026-05-07 20:31 | 60.48874 | 5.58455 | 7107 ft | 228 kts | 258° |
| 2026-05-07 20:31 | 60.48579 | 5.55292 | 6935 ft | 228 kts | 254° |
| 2026-05-07 20:31 | 60.48310 | 5.52116 | 6568 ft | 230 kts | 256° |
| 2026-05-07 20:31 | 60.48098 | 5.48783 | 5689 ft | 249 kts | 259° |
| 2026-05-07 20:32 | 60.47933 | 5.45170 | 4932 ft | 263 kts | 262° |
| 2026-05-07 20:32 | 60.47814 | 5.41456 | 4361 ft | 265 kts | 264° |
| 2026-05-07 20:32 | 60.47733 | 5.37746 | 3887 ft | 261 kts | 265° |
| 2026-05-07 20:32 | 60.47670 | 5.34077 | 3372 ft | 260 kts | 265° |
| 2026-05-07 20:33 | 60.47611 | 5.30447 | 3077 ft | 250 kts | 265° |
| 2026-05-07 20:33 | 60.47559 | 5.27024 | 2949 ft | 235 kts | 265° |
| 2026-05-07 20:33 | 60.47508 | 5.23817 | 2854 ft | 221 kts | 265° |
| 2026-05-07 20:33 | 60.47456 | 5.20790 | 2734 ft | 208 kts | 262° |
| 2026-05-07 20:34 | 60.46980 | 5.18213 | 2578 ft | 189 kts | 226° |
| 2026-05-07 20:34 | 60.45984 | 5.16815 | 2524 ft | 167 kts | 198° |
| 2026-05-07 20:34 | 60.44911 | 5.16563 | 2477 ft | 146 kts | 169° |
| 2026-05-07 20:34 | 60.43924 | 5.16942 | 2497 ft | 145 kts | 170° |
| 2026-05-07 20:35 | 60.42882 | 5.17304 | 2539 ft | 155 kts | 170° |
| 2026-05-07 20:35 | 60.41879 | 5.17652 | 2528 ft | 137 kts | 171° |
| 2026-05-07 20:35 | 60.40972 | 5.17942 | 2493 ft | 128 kts | 171° |
| 2026-05-07 20:35 | 60.40088 | 5.18228 | 2490 ft | 130 kts | 171° |
| 2026-05-07 20:36 | 60.39198 | 5.18517 | 2491 ft | 129 kts | 171° |
| 2026-05-07 20:36 | 60.38307 | 5.18811 | 2442 ft | 133 kts | 170° |
| 2026-05-07 20:36 | 60.37405 | 5.19143 | 2409 ft | 130 kts | 169° |
| 2026-05-07 20:36 | 60.36486 | 5.19518 | 2164 ft | 136 kts | 165° |
| 2026-05-07 20:37 | 60.35561 | 5.19876 | 1790 ft | 133 kts | 172° |
| 2026-05-07 20:37 | 60.34614 | 5.20008 | 1204 ft | 136 kts | 188° |
| 2026-05-07 20:37 | 60.33687 | 5.20209 | 836 ft | 130 kts | 169° |
| 2026-05-07 20:37 | 60.32781 | 5.20612 | 732 ft | 136 kts | 170° |
| 2026-05-07 20:38 | 60.31839 | 5.20926 | 669 ft | 139 kts | 170° |
| 2026-05-07 20:38 | 60.30873 | 5.21293 | 336 ft | 144 kts | 169° |
| 2026-05-07 20:38 | 60.29946 | 5.21615 | 158 ft | 125 kts | 169° |
| 2026-05-07 20:38 | 60.29331 | 5.21824 | 155 ft | 71 kts | 171° |
| 2026-05-07 20:39 | 60.29014 | 5.21930 | 162 ft | 28 kts | 171° |
| 2026-05-07 20:39 | 60.28919 | 5.22147 | 166 ft | 23 kts | 82° |
| 2026-05-07 20:39 | 60.28890 | 5.22403 | 174 ft | 20 kts | 158° |
| 2026-05-07 20:39 | 60.28755 | 5.22457 | 173 ft | 19 kts | 168° |
| 2026-05-07 20:40 | 60.28720 | 5.22651 | 173 ft | 16 kts | 83° |
| 2026-05-07 20:40 | 60.28697 | 5.22854 | 174 ft | 15 kts | 90° |
| 2026-05-07 20:40 | 60.28701 | 5.22915 | 175 ft | 0 kts | 82° |